Time;durP1;ratioP1;P1;durP2;ratioP2;P2;SDS_P1;SDS_P2;PMS_P1;PMS_P2;Temp;Humidity;BMP_temperature;BMP_pressure;BME280_temperature;BME280_humidity;BME280_pressure;Samples;Min_cycle;Max_cycle;Signal;HPM_P1;HPM_P2
2023/02/15 00:00:11;;;;;;;14.25;9.50;;;;;;;16.88;41.80;101899.91;5115203;28;20085;-62
2023/02/15 00:02:39;;;;;;;11.60;8.73;;;;;;;16.84;41.98;101911.84;5115050;28;20063;-62
2023/02/15 00:05:09;;;;;;;12.75;9.35;;;;;;;16.81;41.91;101901.25;5114350;28;20048;-62
2023/02/15 00:07:37;;;;;;;14.65;9.10;;;;;;;16.79;41.87;101903.16;5115070;28;20050;-62
2023/02/15 00:10:06;;;;;;;13.38;9.23;;;;;;;16.75;42.16;101904.31;5114981;28;20050;-61
2023/02/15 00:12:35;;;;;;;13.02;9.45;;;;;;;16.72;41.86;101899.13;5115002;28;20051;-61
2023/02/15 00:15:05;;;;;;;13.27;9.32;;;;;;;16.70;42.17;101906.44;5114668;28;20454;-61
2023/02/15 00:17:33;;;;;;;13.73;9.88;;;;;;;16.68;42.02;101910.97;5114796;27;20507;-62
2023/02/15 00:20:01;;;;;;;12.13;9.13;;;;;;;16.65;42.10;101908.47;5114770;28;20477;-62
2023/02/15 00:22:29;;;;;;;13.77;9.43;;;;;;;16.62;41.92;101911.38;5114731;28;20043;-62
2023/02/15 00:24:57;;;;;;;12.68;9.23;;;;;;;16.57;42.25;101907.09;5114638;28;20047;-62
2023/02/15 00:27:26;;;;;;;12.55;9.20;;;;;;;16.55;42.42;101900.09;5114542;28;20040;-61
2023/02/15 00:29:54;;;;;;;12.63;9.30;;;;;;;16.50;42.39;101903.06;5114627;28;20075;-62
2023/02/15 00:32:23;;;;;;;13.30;9.30;;;;;;;16.48;41.97;101907.66;5114556;28;20733;-61
2023/02/15 00:34:51;;;;;;;13.90;9.27;;;;;;;16.44;42.11;101911.50;5114762;28;20039;-60
2023/02/15 00:37:20;;;;;;;14.05;9.48;;;;;;;16.43;42.14;101915.13;5114337;28;20090;-61
2023/02/15 00:39:48;;;;;;;13.18;8.85;;;;;;;16.39;42.29;101913.56;5114484;28;20040;-62
2023/02/15 00:42:16;;;;;;;13.82;9.75;;;;;;;16.38;42.29;101909.13;5114254;28;20112;-60
2023/02/15 00:44:44;;;;;;;13.90;9.85;;;;;;;16.35;42.48;101911.16;5114360;28;20553;-61
2023/02/15 00:47:12;;;;;;;11.98;9.07;;;;;;;16.31;42.51;101907.78;5114150;28;20485;-61
2023/02/15 00:49:42;;;;;;;14.63;9.45;;;;;;;16.30;42.33;101916.78;5114085;28;20054;-61
2023/02/15 00:52:10;;;;;;;13.00;8.88;;;;;;;16.27;42.67;101911.59;5114244;28;20551;-61
2023/02/15 00:54:39;;;;;;;13.75;8.93;;;;;;;16.24;42.18;101907.25;5113989;28;20120;-61
2023/02/15 00:57:07;;;;;;;14.00;10.07;;;;;;;16.19;42.49;101903.09;5114041;28;20047;-61
2023/02/15 00:59:35;;;;;;;14.43;9.73;;;;;;;16.18;42.46;101901.34;5113975;28;20039;-61
2023/02/15 01:02:03;;;;;;;13.02;9.90;;;;;;;16.16;42.61;101901.44;5113956;28;20053;-61
2023/02/15 01:04:34;;;;;;;14.77;10.68;;;;;;;16.10;42.26;101898.22;5113924;27;20043;-61
2023/02/15 01:07:04;;;;;;;14.20;9.75;;;;;;;16.11;42.52;101908.03;5097768;28;20138;-62
2023/02/15 01:09:32;;;;;;;13.27;9.35;;;;;;;16.08;42.84;101908.22;5093526;28;20139;-62
2023/02/15 01:12:00;;;;;;;14.45;9.85;;;;;;;16.06;42.64;101904.75;5093494;28;20044;-61
2023/02/15 01:14:28;;;;;;;13.38;9.88;;;;;;;16.02;42.66;101904.06;5093393;28;20048;-62
2023/02/15 01:16:56;;;;;;;14.95;10.15;;;;;;;15.99;42.68;101899.72;5092256;28;20048;-61
2023/02/15 01:19:25;;;;;;;15.05;10.68;;;;;;;15.97;42.42;101904.31;5093230;28;20058;-61
2023/02/15 01:21:55;;;;;;;14.38;10.18;;;;;;;15.94;42.58;101901.81;5093136;28;20443;-62
2023/02/15 01:24:25;;;;;;;13.57;10.60;;;;;;;15.94;42.67;101907.19;5093242;28;20059;-63
2023/02/15 01:26:53;;;;;;;13.48;9.25;;;;;;;15.89;42.58;101898.50;5093111;28;20048;-61
2023/02/15 01:29:23;;;;;;;15.52;10.07;;;;;;;15.87;42.68;101899.53;5092949;28;20418;-61
2023/02/15 01:31:52;;;;;;;15.23;10.25;;;;;;;15.86;42.32;101897.81;5093151;28;20048;-62
2023/02/15 01:34:20;;;;;;;12.82;9.85;;;;;;;15.84;42.43;101900.59;5092902;28;20044;-61
2023/02/15 01:36:48;;;;;;;13.48;9.65;;;;;;;15.80;42.51;101890.94;5092890;28;20113;-61
2023/02/15 01:39:16;;;;;;;13.60;10.55;;;;;;;15.79;42.58;101891.91;5092798;28;20623;-60
2023/02/15 01:41:46;;;;;;;15.57;10.40;;;;;;;15.78;42.62;101883.91;5092844;28;20059;-60
2023/02/15 01:44:49;;;;;;;15.07;10.43;;;;;;;15.74;42.57;101884.09;5092857;28;20412;-62
2023/02/15 01:47:21;;;;;;;15.75;10.70;;;;;;;15.72;42.31;101880.59;5092645;28;20121;-62
2023/02/15 01:49:58;;;;;;;13.55;9.95;;;;;;;15.70;42.60;101876.25;5092671;28;20460;-62
2023/02/15 01:52:27;;;;;;;13.65;9.90;;;;;;;15.67;42.80;101888.06;5092599;28;20071;-62
2023/02/15 01:54:55;;;;;;;13.82;9.95;;;;;;;15.64;42.84;101882.88;5092621;28;20068;-61
2023/02/15 01:57:28;;;;;;;12.70;9.73;;;;;;;15.63;42.91;101891.00;5092600;28;20044;-60
2023/02/15 02:00:02;;;;;;;14.00;9.90;;;;;;;15.58;42.70;101882.31;5092425;28;20127;-62
2023/02/15 02:02:31;;;;;;;12.85;9.95;;;;;;;15.57;42.52;101884.13;5092467;28;20052;-62
2023/02/15 02:05:02;;;;;;;14.07;10.23;;;;;;;15.55;42.76;101882.47;5092371;28;20123;-62
2023/02/15 02:07:34;;;;;;;14.27;9.95;;;;;;;15.53;42.61;101879.84;5092396;28;20404;-62
2023/02/15 02:10:04;;;;;;;14.88;10.63;;;;;;;15.52;42.66;101877.25;5092030;28;20044;-62
2023/02/15 02:12:36;;;;;;;15.63;10.93;;;;;;;15.51;42.56;101880.91;5092452;28;20044;-62
2023/02/15 02:15:06;;;;;;;14.80;10.90;;;;;;;15.48;42.57;101878.38;5092171;28;20130;-62
2023/02/15 02:17:48;;;;;;;14.60;11.30;;;;;;;15.45;42.57;101883.00;5092172;28;20044;-62
2023/02/15 02:20:38;;;;;;;17.10;11.77;;;;;;;15.43;42.38;101879.50;5092100;28;20048;-62
2023/02/15 02:23:24;;;;;;;15.60;11.25;;;;;;;15.41;42.60;101864.41;5092157;28;20131;-62
2023/02/15 02:26:16;;;;;;;16.15;11.40;;;;;;;15.39;42.54;101872.56;5092205;28;20044;-61
2023/02/15 02:29:09;;;;;;;16.97;11.70;;;;;;;15.36;42.79;101883.50;5091593;28;20056;-61
2023/02/15 02:32:00;;;;;;;15.82;11.27;;;;;;;15.34;42.59;101880.00;5083658;28;20048;-62
2023/02/15 02:34:33;;;;;;;17.60;12.10;;;;;;;15.32;42.49;101886.41;5091979;28;20055;-62
2023/02/15 02:37:09;;;;;;;15.70;10.60;;;;;;;15.30;42.41;101878.44;5091694;28;20117;-62
2023/02/15 02:39:49;;;;;;;16.00;11.65;;;;;;;15.28;42.89;101879.47;5092057;28;20052;-63
2023/02/15 02:42:25;;;;;;;16.48;11.77;;;;;;;15.24;42.47;101878.75;5092008;28;20048;-62
2023/02/15 02:45:00;;;;;;;16.92;12.20;;;;;;;15.22;42.31;101886.03;5091941;28;20127;-63
2023/02/15 02:47:34;;;;;;;15.98;11.65;;;;;;;15.18;42.47;101879.97;5091775;28;20466;-61
2023/02/15 02:50:07;;;;;;;15.93;11.40;;;;;;;15.18;42.45;101881.78;5091728;28;20048;-62
2023/02/15 02:52:41;;;;;;;15.55;10.75;;;;;;;15.17;42.43;101885.44;5091768;28;20052;-61
2023/02/15 02:55:15;;;;;;;15.25;10.70;;;;;;;15.13;42.40;101878.47;5091729;28;20044;-61
2023/02/15 02:57:53;;;;;;;14.35;9.93;;;;;;;15.12;42.63;101880.28;5091710;28;20051;-61
2023/02/15 03:00:22;;;;;;;15.93;10.95;;;;;;;15.11;42.38;101883.06;5091912;28;20048;-61
2023/02/15 03:02:58;;;;;;;17.27;11.93;;;;;;;15.09;42.55;101885.84;5091782;28;20067;-61
2023/02/15 03:05:30;;;;;;;17.17;11.43;;;;;;;15.06;42.53;101886.00;5091648;28;20040;-62
2023/02/15 03:08:00;;;;;;;17.40;11.77;;;;;;;15.05;42.90;101883.38;5091606;28;20072;-63
2023/02/15 03:10:30;;;;;;;15.80;10.70;;;;;;;15.03;42.33;101891.53;5091498;28;20044;-62
2023/02/15 03:12:58;;;;;;;16.73;11.63;;;;;;;15.01;42.73;101884.50;5091775;28;20068;-63
2023/02/15 03:16:25;;;;;;;15.38;11.45;;;;;;;14.99;42.55;101889.09;5091662;28;20076;-62
2023/02/15 03:18:22;;;;;;;18.58;12.63;;;;;;;14.97;42.60;101885.63;5091911;28;20374;-63
2023/02/15 03:20:53;;;;;;;15.75;11.32;;;;;;;14.95;42.47;101887.50;5091611;28;20052;-62
2023/02/15 03:23:24;;;;;;;15.05;11.20;;;;;;;14.94;42.84;101886.63;5091558;28;20066;-60
2023/02/15 03:25:57;;;;;;;14.75;11.20;;;;;;;14.91;42.52;101885.94;5091595;28;20043;-62
2023/02/15 03:28:32;;;;;;;15.68;11.23;;;;;;;14.88;42.77;101889.66;5091471;28;20044;-63
2023/02/15 03:31:03;;;;;;;16.25;11.48;;;;;;;14.89;42.50;101897.63;5091492;28;20059;-62
2023/02/15 03:33:33;;;;;;;14.32;10.93;;;;;;;14.86;42.57;101895.13;5091327;28;20051;-62
2023/02/15 03:36:08;;;;;;;15.65;11.07;;;;;;;14.84;42.54;101897.00;5091239;28;20102;-61
2023/02/15 03:38:45;;;;;;;14.15;10.23;;;;;;;14.82;42.59;101898.91;5091441;28;20044;-60
2023/02/15 03:41:17;;;;;;;14.68;11.02;;;;;;;14.77;42.49;101890.22;5094900;28;20066;-61
2023/02/15 03:43:50;;;;;;;15.15;12.20;;;;;;;14.78;42.24;101891.09;5095133;28;20047;-61
2023/02/15 03:46:27;;;;;;;15.95;11.40;;;;;;;14.76;42.10;101893.81;5094988;28;20054;-61
2023/02/15 03:49:01;;;;;;;16.17;11.63;;;;;;;14.75;42.29;101894.78;5095169;28;20080;-62
2023/02/15 03:51:33;;;;;;;16.55;11.55;;;;;;;14.73;42.11;101896.69;5095034;28;20127;-60
2023/02/15 03:54:04;;;;;;;14.57;10.27;;;;;;;14.69;42.36;101892.44;5095003;28;20044;-60
2023/02/15 03:56:35;;;;;;;16.02;11.35;;;;;;;14.69;42.08;101895.13;5094731;28;20052;-61
2023/02/15 04:02:02;;;;;;;15.95;11.52;;;;;;;14.67;42.50;101893.44;5094815;28;20048;-61
2023/02/15 04:04:36;;;;;;;16.10;11.63;;;;;;;14.65;42.54;101898.88;5094833;28;20040;-62
2023/02/15 04:07:15;;;;;;;16.52;11.48;;;;;;;14.64;42.39;101890.91;5094609;28;20525;-62
2023/02/15 04:12:29;;;;;;;14.63;10.77;;;;;;;14.57;42.66;101893.94;5094605;28;20072;-61
2023/02/15 04:17:43;;;;;;;15.90;11.60;;;;;;;14.55;42.33;101894.94;5094490;28;20485;-62
2023/02/15 04:25:44;;;;;;;17.70;11.43;;;;;;;14.51;42.64;101893.38;5094306;28;20070;-61
2023/02/15 04:28:12;;;;;;;15.05;11.13;;;;;;;14.50;42.24;101897.00;5094259;28;20052;-62
2023/02/15 04:30:40;;;;;;;18.48;12.40;;;;;;;14.44;42.59;101892.75;5094189;28;20056;-62
2023/02/15 04:33:08;;;;;;;15.55;11.32;;;;;;;14.45;42.25;101888.28;5094253;28;20050;-61
2023/02/15 04:35:36;;;;;;;17.17;11.25;;;;;;;14.44;42.44;101892.75;5093891;28;20052;-62
2023/02/15 04:38:06;;;;;;;14.63;10.50;;;;;;;14.45;43.14;101889.16;5093993;28;20109;-60
2023/02/15 04:40:34;;;;;;;14.30;10.43;;;;;;;14.49;43.35;101887.22;5093873;28;20040;-63
2023/02/15 04:43:03;;;;;;;14.80;10.43;;;;;;;14.54;43.58;101899.44;5093861;28;20572;-62
2023/02/15 04:45:31;;;;;;;16.15;11.25;;;;;;;14.64;43.65;101904.34;5093803;28;20040;-62
2023/02/15 04:47:59;;;;;;;15.73;10.55;;;;;;;14.75;43.57;101899.28;5093872;28;20451;-62
2023/02/15 04:50:27;;;;;;;14.60;10.00;;;;;;;14.85;43.52;101898.72;5093431;28;20047;-63
2023/02/15 04:52:56;;;;;;;15.73;10.95;;;;;;;14.97;43.42;101899.94;5093840;28;20047;-63
2023/02/15 04:55:26;;;;;;;14.00;10.32;;;;;;;15.07;43.29;101894.94;5093741;28;20386;-63
2023/02/15 04:57:54;;;;;;;15.52;10.25;;;;;;;15.18;43.20;101900.59;5093735;28;20051;-61
2023/02/15 05:00:27;;;;;;;15.30;11.18;;;;;;;15.27;43.02;101894.75;5093581;28;20361;-62
2023/02/15 05:02:55;;;;;;;14.98;10.45;;;;;;;15.39;42.87;101899.44;5093620;28;20044;-63
2023/02/15 05:05:23;;;;;;;14.45;10.73;;;;;;;15.52;42.64;101898.75;5093868;28;20127;-63
2023/02/15 05:07:52;;;;;;;15.48;10.57;;;;;;;15.61;42.61;101900.97;5093340;28;20051;-62
2023/02/15 05:10:20;;;;;;;15.88;10.88;;;;;;;15.73;42.49;101897.63;5093489;28;20044;-62
2023/02/15 05:12:49;;;;;;;14.52;10.52;;;;;;;15.82;42.33;101902.47;5093354;28;20110;-62
2023/02/15 05:15:17;;;;;;;14.98;10.85;;;;;;;15.92;42.18;101892.97;5093353;28;20048;-61
2023/02/15 05:17:46;;;;;;;16.35;11.05;;;;;;;16.03;41.99;101900.41;5093362;28;20044;-62
2023/02/15 05:20:14;;;;;;;14.63;10.20;;;;;;;16.15;41.89;101901.53;5093070;28;20058;-62
2023/02/15 05:22:42;;;;;;;15.13;10.57;;;;;;;16.26;41.67;101899.09;5093509;28;20044;-61
2023/02/15 05:30:43;;;;;;;15.63;10.52;;;;;;;16.59;41.24;101915.94;5092845;28;20067;-61
2023/02/15 05:33:11;;;;;;;14.68;10.57;;;;;;;16.70;41.17;101917.22;5092932;28;20489;-62
2023/02/15 05:35:39;;;;;;;15.38;11.18;;;;;;;16.76;40.92;101922.22;5092841;28;20052;-61
2023/02/15 05:38:07;;;;;;;14.73;11.10;;;;;;;16.82;40.80;101921.84;5092798;28;20043;-63
2023/02/15 05:40:36;;;;;;;15.82;11.43;;;;;;;16.84;40.86;101925.31;5092676;28;20066;-61
2023/02/15 05:43:05;;;;;;;14.85;10.38;;;;;;;16.87;40.69;101930.50;5092749;28;20534;-61
2023/02/15 05:45:33;;;;;;;14.48;10.65;;;;;;;16.89;40.66;101928.63;5092645;28;20051;-60
2023/02/15 05:48:01;;;;;;;15.35;10.73;;;;;;;16.90;40.75;101935.75;5092599;28;20048;-61
2023/02/15 05:50:29;;;;;;;14.80;10.90;;;;;;;16.91;40.62;101934.78;5092501;28;20385;-61
2023/02/15 05:52:57;;;;;;;14.65;10.52;;;;;;;16.91;40.65;101937.47;5092722;28;20119;-61
2023/02/15 05:55:26;;;;;;;14.68;10.27;;;;;;;16.89;40.72;101928.63;5092682;28;20050;-63
2023/02/15 05:57:54;;;;;;;15.18;10.40;;;;;;;16.88;40.62;101929.56;5092519;28;20048;-62
2023/02/15 06:00:24;;;;;;;14.35;10.30;;;;;;;16.83;40.54;101928.97;5092343;28;20040;-62
2023/02/15 06:02:52;;;;;;;14.55;10.40;;;;;;;16.80;40.55;101931.88;5091773;28;20089;-61
2023/02/15 06:05:20;;;;;;;15.48;10.55;;;;;;;16.76;40.69;101933.00;5092258;28;20123;-61
2023/02/15 06:07:48;;;;;;;14.23;10.60;;;;;;;16.72;40.45;101931.44;5092250;28;20044;-62
2023/02/15 06:10:16;;;;;;;14.90;10.80;;;;;;;16.69;40.51;101934.31;5091993;28;20048;-62
2023/02/15 06:12:45;;;;;;;16.05;10.60;;;;;;;16.62;40.63;101931.09;5091814;28;20059;-62
2023/02/15 06:15:13;;;;;;;17.00;11.27;;;;;;;16.60;41.15;101941.09;5091820;28;20044;-62
2023/02/15 06:17:43;;;;;;;15.38;10.63;;;;;;;16.56;41.40;101943.09;5092057;28;20052;-61
2023/02/15 06:20:13;;;;;;;15.25;10.90;;;;;;;16.52;41.37;101940.66;5107056;28;20127;-61
2023/02/15 06:22:41;;;;;;;14.77;10.93;;;;;;;16.47;41.58;101949.00;5111834;28;20043;-61
2023/02/15 06:25:11;;;;;;;17.40;11.75;;;;;;;16.42;41.81;101937.66;5109300;28;20039;-61
2023/02/15 06:27:42;;;;;;;17.00;10.98;;;;;;;16.37;41.89;101947.81;5112416;28;20450;-62
2023/02/15 06:30:12;;;;;;;15.20;11.15;;;;;;;16.33;41.94;101935.47;5111757;28;20044;-62
2023/02/15 06:32:41;;;;;;;22.42;12.35;;;;;;;16.28;41.95;101948.31;5111697;28;20491;-63
2023/02/15 06:35:10;;;;;;;20.58;13.13;;;;;;;16.25;41.74;101948.50;5111486;28;20141;-63
2023/02/15 06:37:39;;;;;;;19.88;12.55;;;;;;;16.20;41.21;101950.59;5111250;28;20036;-62
2023/02/15 06:40:08;;;;;;;19.40;11.88;;;;;;;16.13;41.67;101947.41;5111147;28;20050;-62
2023/02/15 06:42:36;;;;;;;20.08;13.23;;;;;;;16.09;41.72;101953.88;5111324;28;20046;-61
2023/02/15 06:45:05;;;;;;;21.65;13.98;;;;;;;16.07;41.59;101958.50;5111298;28;20046;-62
2023/02/15 06:47:35;;;;;;;21.00;14.50;;;;;;;16.02;41.61;101957.91;5111218;28;20089;-61
2023/02/15 06:50:05;;;;;;;17.67;12.93;;;;;;;15.99;41.72;101958.91;5111222;28;20047;-61
2023/02/15 06:52:35;;;;;;;19.48;13.70;;;;;;;15.96;42.00;101958.22;5111334;28;20534;-61
2023/02/15 06:55:03;;;;;;;21.60;13.55;;;;;;;15.91;42.16;101963.84;5109109;28;20050;-62
2023/02/15 06:57:32;;;;;;;19.55;13.95;;;;;;;15.86;41.78;101957.00;5111054;28;20050;-62
2023/02/15 07:00:01;;;;;;;20.30;13.95;;;;;;;15.81;42.04;101953.69;5109029;28;20050;-62
2023/02/15 07:02:29;;;;;;;22.00;13.93;;;;;;;15.79;42.06;101950.22;5111939;28;20119;-62
2023/02/15 07:04:57;;;;;;;20.70;14.30;;;;;;;15.75;42.11;101957.59;5111876;28;20485;-61
2023/02/15 07:07:26;;;;;;;22.50;14.05;;;;;;;15.69;42.36;101950.72;5111884;28;20047;-61
2023/02/15 07:09:55;;;;;;;19.10;13.35;;;;;;;15.68;42.34;101958.88;5111459;28;20468;-62
2023/02/15 07:15:10;;;;;;;25.83;14.00;;;;;;;15.60;42.43;101961.09;5115201;28;20544;-65
2023/02/15 07:17:38;;;;;;;20.83;14.13;;;;;;;15.55;42.46;101958.66;5115802;28;20499;-64
2023/02/15 07:20:10;;;;;;;20.15;13.32;;;;;;;15.52;42.71;101966.88;5115760;28;20142;-64
2023/02/15 07:22:38;;;;;;;25.58;13.98;;;;;;;15.49;42.50;101963.47;5115684;28;20044;-66
2023/02/15 07:25:12;;;;;;;26.50;15.48;;;;;;;15.44;42.12;101961.91;5114806;28;20674;-65
2023/02/15 07:27:41;;;;;;;20.20;14.40;;;;;;;15.44;41.93;101955.66;5113162;28;20044;-66
2023/02/15 07:30:13;;;;;;;26.13;18.52;;;;;;;15.43;41.88;101954.78;5115392;28;20395;-66
2023/02/15 07:33:22;;;;;;;22.52;16.33;;;;;;;15.45;41.68;101949.34;5117314;28;20048;-62
2023/02/15 07:35:32;;;;;;;24.35;16.17;;;;;;;15.51;41.66;101951.69;5115248;28;20082;-63
2023/02/15 07:38:01;;;;;;;23.95;15.52;;;;;;;15.60;41.40;101955.69;5115499;28;20074;-61
2023/02/15 07:40:31;;;;;;;20.08;15.23;;;;;;;15.69;41.32;101949.84;5115423;28;20400;-63
2023/02/15 07:42:59;;;;;;;24.73;15.88;;;;;;;15.81;41.12;101957.25;5115318;28;20036;-62
2023/02/15 07:45:28;;;;;;;22.88;15.85;;;;;;;15.91;40.84;101950.41;5115382;28;20055;-62
2023/02/15 07:47:56;;;;;;;21.33;15.93;;;;;;;16.00;41.01;101949.88;5115283;28;20047;-62
2023/02/15 07:50:24;;;;;;;21.58;15.38;;;;;;;16.12;40.94;101959.13;5115263;28;20043;-62
2023/02/15 07:52:52;;;;;;;21.80;15.13;;;;;;;16.24;41.00;101953.03;5115144;28;20122;-63
2023/02/15 07:55:20;;;;;;;22.05;15.15;;;;;;;16.35;40.90;101949.72;5114897;28;20043;-62
2023/02/15 07:57:53;;;;;;;22.73;14.48;;;;;;;16.46;40.80;101944.56;5114917;28;20127;-62
2023/02/15 08:00:24;;;;;;;22.15;14.63;;;;;;;16.57;40.60;101950.19;5114978;28;20047;-63
2023/02/15 08:05:37;;;;;;;20.35;13.77;;;;;;;16.73;40.31;101936.75;5114593;27;20070;-61
2023/02/15 08:08:05;;;;;;;19.13;14.05;;;;;;;16.78;40.38;101936.44;5114894;28;20071;-63
2023/02/15 08:13:20;;;;;;;19.33;14.05;;;;;;;16.81;40.51;101933.59;5114703;28;20381;-62
2023/02/15 08:15:49;;;;;;;20.83;14.05;;;;;;;16.81;40.44;101931.78;5113717;28;20050;-63
2023/02/15 08:18:18;;;;;;;20.15;14.02;;;;;;;16.78;40.48;101931.06;5113899;28;20044;-62
2023/02/15 08:20:50;;;;;;;19.10;13.23;;;;;;;16.77;40.52;101924.81;5114354;28;20040;-64
2023/02/15 08:23:19;;;;;;;18.70;13.13;;;;;;;16.75;40.47;101926.72;5092696;28;20489;-63
2023/02/15 08:25:50;;;;;;;19.13;13.13;;;;;;;16.74;40.69;101934.91;5093545;28;20044;-62
2023/02/15 08:28:19;;;;;;;19.95;13.60;;;;;;;16.72;40.56;101926.06;5092893;28;20094;-64
2023/02/15 08:30:47;;;;;;;18.98;13.43;;;;;;;16.70;40.58;101933.38;5090906;28;20044;-63
2023/02/15 08:33:17;;;;;;;18.52;13.27;;;;;;;16.67;40.83;101923.59;5093041;28;20069;-63
2023/02/15 08:35:47;;;;;;;18.98;13.30;;;;;;;16.63;40.94;101927.44;5093339;28;20060;-63
2023/02/15 08:38:16;;;;;;;21.08;13.05;;;;;;;16.61;41.22;101929.34;5093473;28;20067;-64
2023/02/15 08:40:44;;;;;;;21.58;13.77;;;;;;;16.55;41.21;101925.19;5093647;28;20044;-64
2023/02/15 08:43:13;;;;;;;18.67;13.05;;;;;;;16.54;41.13;101923.44;5092004;28;20051;-64
2023/02/15 08:45:42;;;;;;;18.15;13.27;;;;;;;16.52;41.14;101924.50;5093838;28;20089;-65
2023/02/15 08:48:12;;;;;;;19.05;12.55;;;;;;;16.48;41.03;101923.81;5093589;28;20050;-64
2023/02/15 08:50:40;;;;;;;19.35;13.30;;;;;;;16.45;41.21;101917.75;5093681;28;20044;-64
2023/02/15 08:53:08;;;;;;;22.60;12.95;;;;;;;16.42;41.12;101918.78;5093457;28;20044;-64
2023/02/15 08:55:36;;;;;;;18.98;12.80;;;;;;;16.40;40.96;101926.06;5093554;28;20044;-64
2023/02/15 08:58:04;;;;;;;20.13;13.10;;;;;;;16.37;40.83;101914.63;5093604;28;20051;-64
2023/02/15 09:00:33;;;;;;;17.10;12.00;;;;;;;16.33;40.27;101924.72;5093288;28;20050;-64
2023/02/15 09:03:02;;;;;;;19.23;13.05;;;;;;;16.31;40.22;101922.13;5093465;28;20115;-64
2023/02/15 09:05:30;;;;;;;19.67;13.00;;;;;;;16.28;40.45;101916.00;5093455;28;20043;-63
2023/02/15 09:08:01;;;;;;;19.00;12.68;;;;;;;16.27;40.32;101914.28;5092133;28;20055;-64
2023/02/15 09:10:30;;;;;;;18.67;14.05;;;;;;;16.25;40.15;101917.06;5093207;28;20097;-64
2023/02/15 09:12:58;;;;;;;19.48;13.45;;;;;;;16.22;40.24;101917.25;5093238;28;20044;-65
2023/02/15 09:15:26;;;;;;;17.58;12.63;;;;;;;16.20;40.35;101915.59;5093264;28;20110;-63
2023/02/15 09:17:55;;;;;;;17.58;12.65;;;;;;;16.19;40.77;101913.84;5093142;28;20136;-64
2023/02/15 09:20:25;;;;;;;18.67;13.50;;;;;;;16.16;40.58;101914.91;5093139;28;20048;-63
2023/02/15 09:22:54;;;;;;;17.95;12.15;;;;;;;16.16;40.86;101914.03;5093072;28;20053;-63
2023/02/15 09:25:26;;;;;;;18.17;12.52;;;;;;;16.13;40.91;101911.53;5093151;28;20434;-63
2023/02/15 09:27:54;;;;;;;19.90;13.80;;;;;;;16.07;40.89;101904.66;5093116;28;20047;-63
2023/02/15 09:30:22;;;;;;;17.75;12.60;;;;;;;16.10;40.87;101900.91;5092816;28;20101;-62
2023/02/15 09:32:51;;;;;;;18.92;12.80;;;;;;;16.09;40.90;101901.88;5092869;28;20048;-63
2023/02/15 09:35:19;;;;;;;19.20;12.98;;;;;;;16.09;41.00;101904.56;5092476;28;20420;-63
2023/02/15 09:37:48;;;;;;;17.63;13.15;;;;;;;16.08;40.83;101900.16;5091786;28;20048;-64
2023/02/15 09:40:18;;;;;;;17.98;13.10;;;;;;;16.06;40.84;101902.06;5092842;28;20466;-64
2023/02/15 09:43:31;;;;;;;17.38;13.02;;;;;;;16.07;40.84;101891.19;5092583;28;20040;-64
2023/02/15 09:46:28;;;;;;;17.15;12.93;;;;;;;16.07;40.85;101895.72;5030182;28;20088;-64
2023/02/15 09:49:02;;;;;;;16.63;12.23;;;;;;;16.06;40.91;101889.47;5092297;28;20048;-62
2023/02/15 09:52:02;;;;;;;16.73;12.57;;;;;;;16.06;40.65;101889.47;5092364;28;20101;-64
2023/02/15 09:54:43;;;;;;;17.40;11.95;;;;;;;16.07;40.47;101890.34;5092574;28;20139;-62
2023/02/15 09:57:21;;;;;;;16.73;11.95;;;;;;;16.08;40.65;101892.06;5092148;28;20089;-64
2023/02/15 09:59:59;;;;;;;17.60;11.80;;;;;;;16.09;40.80;101880.34;5092213;28;20098;-64
2023/02/15 10:02:45;;;;;;;16.33;12.50;;;;;;;16.09;40.97;101880.34;5090298;28;20105;-64
2023/02/15 10:05:25;;;;;;;19.30;12.10;;;;;;;16.10;40.82;101880.25;5092179;28;20409;-63
2023/02/15 10:08:13;;;;;;;15.30;12.35;;;;;;;16.13;40.77;101876.53;5092252;28;20048;-64
2023/02/15 10:10:55;;;;;;;16.63;12.00;;;;;;;16.15;40.78;101877.31;5092047;28;20044;-63
2023/02/15 10:13:36;;;;;;;17.33;12.10;;;;;;;16.17;40.83;101872.69;5092333;28;20060;-63
2023/02/15 10:16:20;;;;;;;16.30;11.88;;;;;;;16.17;40.80;101870.00;5092161;28;20058;-63
2023/02/15 10:18:56;;;;;;;15.90;11.68;;;;;;;16.16;40.70;101852.13;5092188;28;20051;-64
2023/02/15 10:21:43;;;;;;;15.75;11.50;;;;;;;16.23;40.67;101861.59;5092149;28;20131;-64
2023/02/15 10:24:32;;;;;;;16.55;12.07;;;;;;;16.25;40.60;101865.06;5092137;28;20044;-65
2023/02/15 10:27:13;;;;;;;18.30;11.95;;;;;;;16.27;40.59;101860.44;5092054;28;20043;-64
2023/02/15 10:29:49;;;;;;;16.60;11.15;;;;;;;16.28;40.56;101856.78;5091839;28;20603;-63
2023/02/15 10:32:25;;;;;;;16.73;11.20;;;;;;;16.31;40.65;101857.50;5090727;28;20389;-64
2023/02/15 10:35:01;;;;;;;14.75;10.98;;;;;;;16.34;40.80;101864.50;5091940;28;20119;-64
2023/02/15 10:37:45;;;;;;;15.90;11.00;;;;;;;16.36;40.66;101854.50;5091479;28;20130;-64
2023/02/15 10:40:26;;;;;;;14.48;10.60;;;;;;;16.39;40.59;101859.69;5091723;28;20043;-62
2023/02/15 10:43:11;;;;;;;15.60;10.93;;;;;;;16.42;40.65;101864.94;5092048;28;20074;-63
2023/02/15 10:45:51;;;;;;;14.73;10.95;;;;;;;16.43;40.46;101855.88;5091954;28;20044;-64
2023/02/15 10:48:47;;;;;;;16.67;10.38;;;;;;;16.50;40.70;101853.69;5091327;28;20467;-63
2023/02/15 10:51:26;;;;;;;14.57;10.75;;;;;;;16.51;40.76;101852.75;5091802;28;20044;-64
2023/02/15 10:54:09;;;;;;;14.27;10.63;;;;;;;16.54;40.73;101850.72;5091688;28;20127;-63
2023/02/15 10:56:44;;;;;;;14.40;9.98;;;;;;;16.59;40.78;101845.91;5091555;28;20051;-64
2023/02/15 10:59:46;;;;;;;13.40;10.05;;;;;;;16.62;40.84;101838.63;5091545;28;20086;-64
2023/02/15 11:02:24;;;;;;;14.40;10.77;;;;;;;16.65;40.72;101831.22;5068121;28;20060;-64
2023/02/15 11:05:01;;;;;;;15.32;10.57;;;;;;;16.70;40.78;101834.56;5090064;28;20054;-64
2023/02/15 11:07:34;;;;;;;14.95;10.43;;;;;;;16.72;40.79;101829.94;5091476;28;20056;-64
2023/02/15 11:10:15;;;;;;;14.02;9.77;;;;;;;16.74;40.61;101822.59;5091774;28;20051;-63
2023/02/15 11:12:47;;;;;;;15.63;10.53;;;;;;;16.77;40.77;101821.56;5091606;28;20463;-63
2023/02/15 11:15:26;;;;;;;12.52;10.23;;;;;;;16.79;40.60;101820.53;5091606;28;20404;-63
2023/02/15 11:17:59;;;;;;;12.85;10.02;;;;;;;16.82;40.45;101817.63;5091484;28;20044;-64
2023/02/15 11:20:31;;;;;;;12.88;10.13;;;;;;;16.85;40.54;101813.88;5091460;28;20405;-63
2023/02/15 11:23:02;;;;;;;15.13;10.80;;;;;;;16.87;40.58;101810.09;5091618;28;20048;-64
2023/02/15 11:25:33;;;;;;;13.70;10.43;;;;;;;16.93;40.52;101808.88;5091486;28;20504;-65
2023/02/15 11:28:05;;;;;;;12.75;10.10;;;;;;;16.95;40.61;101809.63;5091363;28;20048;-64
2023/02/15 11:30:52;;;;;;;11.85;9.80;;;;;;;16.99;40.59;101803.09;5091346;28;20044;-65
2023/02/15 11:33:26;;;;;;;13.80;9.50;;;;;;;17.02;40.41;101796.66;5091219;28;20379;-64
2023/02/15 11:36:00;;;;;;;14.20;9.65;;;;;;;17.04;40.37;101794.72;5091196;28;20409;-67
2023/02/15 11:38:33;;;;;;;13.80;10.20;;;;;;;17.09;40.27;101796.19;5090998;28;20044;-63
2023/02/15 11:41:08;;;;;;;14.20;10.57;;;;;;;17.11;40.31;101794.25;5091522;28;20083;-64
2023/02/15 11:43:42;;;;;;;13.30;9.88;;;;;;;17.14;40.42;101785.09;5091459;28;20692;-64
2023/02/15 11:46:18;;;;;;;12.25;8.98;;;;;;;17.17;40.36;101777.66;5091289;28;20123;-64
2023/02/15 11:48:47;;;;;;;12.60;9.45;;;;;;;17.21;40.30;101777.47;5091134;28;20044;-63
2023/02/15 11:51:17;;;;;;;14.48;10.15;;;;;;;17.22;40.28;101774.69;5090907;28;20040;-63
2023/02/15 11:53:46;;;;;;;12.63;9.70;;;;;;;17.27;40.35;101767.16;5091018;28;20044;-63
2023/02/15 11:56:16;;;;;;;13.50;10.25;;;;;;;17.31;40.39;101767.84;5091015;28;20072;-62
2023/02/15 11:58:50;;;;;;;13.68;9.77;;;;;;;17.34;40.21;101767.63;5090966;28;20040;-63
2023/02/15 12:01:25;;;;;;;11.93;9.50;;;;;;;17.38;40.15;101770.03;5091186;28;20576;-63